sensor_id;sensor_type;location;lat;lon;timestamp;P1;durP1;ratioP1;P2;durP2;ratioP2
74914;SDS011;63475;45.140;-75.616;2023-12-29T00:01:06;4.10;;;0.80;;
74914;SDS011;63475;45.140;-75.616;2023-12-29T00:03:09;3.17;;;1.30;;
74914;SDS011;63475;45.140;-75.616;2023-12-29T00:05:11;3.35;;;0.95;;
74914;SDS011;63475;45.140;-75.616;2023-12-29T00:07:14;4.70;;;0.82;;
74914;SDS011;63475;45.140;-75.616;2023-12-29T00:09:21;2.75;;;0.73;;
74914;SDS011;63475;45.140;-75.616;2023-12-29T00:11:23;2.13;;;0.98;;
74914;SDS011;63475;45.140;-75.616;2023-12-29T00:13:26;4.20;;;1.23;;
74914;SDS011;63475;45.140;-75.616;2023-12-29T00:15:29;4.30;;;1.05;;
74914;SDS011;63475;45.140;-75.616;2023-12-29T00:17:31;2.95;;;0.70;;
74914;SDS011;63475;45.140;-75.616;2023-12-29T00:19:34;5.63;;;0.90;;
74914;SDS011;63475;45.140;-75.616;2023-12-29T00:21:37;3.00;;;0.77;;
74914;SDS011;63475;45.140;-75.616;2023-12-29T00:23:39;4.20;;;1.02;;
74914;SDS011;63475;45.140;-75.616;2023-12-29T00:25:42;3.97;;;1.33;;
74914;SDS011;63475;45.140;-75.616;2023-12-29T00:27:45;2.65;;;0.77;;
74914;SDS011;63475;45.140;-75.616;2023-12-29T00:29:47;4.20;;;1.00;;
74914;SDS011;63475;45.140;-75.616;2023-12-29T00:31:50;4.05;;;0.90;;
74914;SDS011;63475;45.140;-75.616;2023-12-29T00:33:53;4.65;;;0.88;;
74914;SDS011;63475;45.140;-75.616;2023-12-29T00:35:55;3.83;;;0.70;;
74914;SDS011;63475;45.140;-75.616;2023-12-29T00:37:58;3.92;;;0.93;;
74914;SDS011;63475;45.140;-75.616;2023-12-29T00:40:00;2.65;;;0.68;;
74914;SDS011;63475;45.140;-75.616;2023-12-29T00:42:03;2.85;;;0.90;;
74914;SDS011;63475;45.140;-75.616;2023-12-29T00:44:08;3.13;;;1.20;;
74914;SDS011;63475;45.140;-75.616;2023-12-29T00:46:10;2.63;;;0.43;;
74914;SDS011;63475;45.140;-75.616;2023-12-29T00:48:17;3.65;;;0.65;;
74914;SDS011;63475;45.140;-75.616;2023-12-29T00:50:20;4.07;;;1.05;;
74914;SDS011;63475;45.140;-75.616;2023-12-29T00:52:23;3.45;;;0.70;;
74914;SDS011;63475;45.140;-75.616;2023-12-29T00:54:25;4.10;;;0.65;;
74914;SDS011;63475;45.140;-75.616;2023-12-29T00:56:30;3.78;;;1.25;;
74914;SDS011;63475;45.140;-75.616;2023-12-29T00:58:33;3.85;;;1.13;;
74914;SDS011;63475;45.140;-75.616;2023-12-29T01:00:35;3.58;;;0.57;;
74914;SDS011;63475;45.140;-75.616;2023-12-29T01:02:38;3.78;;;0.68;;
74914;SDS011;63475;45.140;-75.616;2023-12-29T01:04:41;4.70;;;1.17;;
74914;SDS011;63475;45.140;-75.616;2023-12-29T01:06:44;3.25;;;0.60;;
74914;SDS011;63475;45.140;-75.616;2023-12-29T01:08:47;4.10;;;0.90;;
74914;SDS011;63475;45.140;-75.616;2023-12-29T01:10:49;2.80;;;1.10;;
74914;SDS011;63475;45.140;-75.616;2023-12-29T01:12:52;4.22;;;1.02;;
74914;SDS011;63475;45.140;-75.616;2023-12-29T01:14:54;2.15;;;0.60;;
74914;SDS011;63475;45.140;-75.616;2023-12-29T01:16:57;2.17;;;0.77;;
74914;SDS011;63475;45.140;-75.616;2023-12-29T01:19:00;2.78;;;0.70;;
74914;SDS011;63475;45.140;-75.616;2023-12-29T01:21:04;3.65;;;1.17;;
74914;SDS011;63475;45.140;-75.616;2023-12-29T01:23:07;2.33;;;0.77;;
74914;SDS011;63475;45.140;-75.616;2023-12-29T01:25:09;5.55;;;0.75;;
74914;SDS011;63475;45.140;-75.616;2023-12-29T01:27:12;3.35;;;0.95;;
74914;SDS011;63475;45.140;-75.616;2023-12-29T01:29:16;2.42;;;0.55;;
74914;SDS011;63475;45.140;-75.616;2023-12-29T01:31:18;1.67;;;0.38;;
74914;SDS011;63475;45.140;-75.616;2023-12-29T01:33:21;1.90;;;1.08;;
74914;SDS011;63475;45.140;-75.616;2023-12-29T01:35:23;4.30;;;1.20;;
74914;SDS011;63475;45.140;-75.616;2023-12-29T01:37:26;2.17;;;0.70;;
74914;SDS011;63475;45.140;-75.616;2023-12-29T01:39:29;3.25;;;1.13;;
74914;SDS011;63475;45.140;-75.616;2023-12-29T01:41:32;5.32;;;1.25;;
74914;SDS011;63475;45.140;-75.616;2023-12-29T01:43:34;2.67;;;0.85;;
74914;SDS011;63475;45.140;-75.616;2023-12-29T01:45:37;4.88;;;0.95;;
74914;SDS011;63475;45.140;-75.616;2023-12-29T01:47:55;1.50;;;0.63;;
74914;SDS011;63475;45.140;-75.616;2023-12-29T01:49:58;2.13;;;0.75;;
74914;SDS011;63475;45.140;-75.616;2023-12-29T01:52:01;2.40;;;0.63;;
74914;SDS011;63475;45.140;-75.616;2023-12-29T01:54:05;3.72;;;1.10;;
74914;SDS011;63475;45.140;-75.616;2023-12-29T01:56:09;3.17;;;1.45;;
74914;SDS011;63475;45.140;-75.616;2023-12-29T01:58:12;2.92;;;0.70;;
74914;SDS011;63475;45.140;-75.616;2023-12-29T02:00:16;4.60;;;1.42;;
74914;SDS011;63475;45.140;-75.616;2023-12-29T02:02:20;2.50;;;0.80;;
74914;SDS011;63475;45.140;-75.616;2023-12-29T02:04:25;2.47;;;0.60;;
74914;SDS011;63475;45.140;-75.616;2023-12-29T02:06:28;4.07;;;1.08;;
74914;SDS011;63475;45.140;-75.616;2023-12-29T02:08:32;1.30;;;0.50;;
74914;SDS011;63475;45.140;-75.616;2023-12-29T02:10:35;3.33;;;1.35;;
74914;SDS011;63475;45.140;-75.616;2023-12-29T02:12:39;3.55;;;0.50;;
74914;SDS011;63475;45.140;-75.616;2023-12-29T02:14:41;2.03;;;0.50;;
74914;SDS011;63475;45.140;-75.616;2023-12-29T02:19:04;3.30;;;0.80;;
74914;SDS011;63475;45.140;-75.616;2023-12-29T02:21:29;4.38;;;1.08;;
74914;SDS011;63475;45.140;-75.616;2023-12-29T02:23:32;4.03;;;1.17;;
74914;SDS011;63475;45.140;-75.616;2023-12-29T02:25:35;2.20;;;0.60;;
74914;SDS011;63475;45.140;-75.616;2023-12-29T02:27:41;3.50;;;0.55;;
74914;SDS011;63475;45.140;-75.616;2023-12-29T02:32:15;1.98;;;0.60;;
74914;SDS011;63475;45.140;-75.616;2023-12-29T02:34:20;3.75;;;0.82;;
74914;SDS011;63475;45.140;-75.616;2023-12-29T02:36:25;4.45;;;1.10;;
74914;SDS011;63475;45.140;-75.616;2023-12-29T02:38:28;3.70;;;1.17;;
74914;SDS011;63475;45.140;-75.616;2023-12-29T02:40:31;4.40;;;1.13;;
74914;SDS011;63475;45.140;-75.616;2023-12-29T02:42:34;2.47;;;0.88;;
74914;SDS011;63475;45.140;-75.616;2023-12-29T02:44:37;6.03;;;1.52;;
74914;SDS011;63475;45.140;-75.616;2023-12-29T02:46:39;3.13;;;0.80;;
74914;SDS011;63475;45.140;-75.616;2023-12-29T02:48:42;3.25;;;1.30;;
74914;SDS011;63475;45.140;-75.616;2023-12-29T02:50:44;3.03;;;1.08;;
74914;SDS011;63475;45.140;-75.616;2023-12-29T02:52:47;5.30;;;1.20;;
74914;SDS011;63475;45.140;-75.616;2023-12-29T02:54:50;3.08;;;0.63;;
74914;SDS011;63475;45.140;-75.616;2023-12-29T02:56:54;1.92;;;0.93;;
74914;SDS011;63475;45.140;-75.616;2023-12-29T02:58:57;2.78;;;0.90;;
74914;SDS011;63475;45.140;-75.616;2023-12-29T03:00:59;3.00;;;0.90;;
74914;SDS011;63475;45.140;-75.616;2023-12-29T03:03:02;2.97;;;0.80;;
74914;SDS011;63475;45.140;-75.616;2023-12-29T03:05:06;3.55;;;1.48;;
74914;SDS011;63475;45.140;-75.616;2023-12-29T03:07:09;2.58;;;0.47;;
74914;SDS011;63475;45.140;-75.616;2023-12-29T03:09:12;4.10;;;1.17;;
74914;SDS011;63475;45.140;-75.616;2023-12-29T03:11:14;2.10;;;1.45;;
74914;SDS011;63475;45.140;-75.616;2023-12-29T03:13:17;3.42;;;0.98;;
74914;SDS011;63475;45.140;-75.616;2023-12-29T03:15:19;3.15;;;1.05;;
74914;SDS011;63475;45.140;-75.616;2023-12-29T03:17:22;3.03;;;1.02;;
74914;SDS011;63475;45.140;-75.616;2023-12-29T03:19:24;4.13;;;0.93;;
74914;SDS011;63475;45.140;-75.616;2023-12-29T03:21:27;2.03;;;0.68;;
74914;SDS011;63475;45.140;-75.616;2023-12-29T03:23:30;2.35;;;0.73;;
74914;SDS011;63475;45.140;-75.616;2023-12-29T03:25:32;2.45;;;1.05;;
74914;SDS011;63475;45.140;-75.616;2023-12-29T03:27:35;1.63;;;0.70;;
74914;SDS011;63475;45.140;-75.616;2023-12-29T03:29:37;1.88;;;0.40;;
74914;SDS011;63475;45.140;-75.616;2023-12-29T03:31:40;2.97;;;0.82;;
74914;SDS011;63475;45.140;-75.616;2023-12-29T03:33:43;2.90;;;0.60;;
74914;SDS011;63475;45.140;-75.616;2023-12-29T03:35:45;3.55;;;0.82;;
74914;SDS011;63475;45.140;-75.616;2023-12-29T03:37:48;3.45;;;1.13;;
74914;SDS011;63475;45.140;-75.616;2023-12-29T03:39:50;3.08;;;0.95;;
74914;SDS011;63475;45.140;-75.616;2023-12-29T03:41:53;2.33;;;0.50;;
74914;SDS011;63475;45.140;-75.616;2023-12-29T03:43:55;2.60;;;0.80;;
74914;SDS011;63475;45.140;-75.616;2023-12-29T03:45:58;1.20;;;0.32;;
74914;SDS011;63475;45.140;-75.616;2023-12-29T03:48:01;3.42;;;0.85;;
74914;SDS011;63475;45.140;-75.616;2023-12-29T03:50:04;2.80;;;0.63;;
74914;SDS011;63475;45.140;-75.616;2023-12-29T03:52:08;1.52;;;0.30;;
74914;SDS011;63475;45.140;-75.616;2023-12-29T03:54:10;1.48;;;0.55;;
74914;SDS011;63475;45.140;-75.616;2023-12-29T03:56:17;2.88;;;0.85;;
74914;SDS011;63475;45.140;-75.616;2023-12-29T03:58:20;2.00;;;0.60;;
74914;SDS011;63475;45.140;-75.616;2023-12-29T04:00:23;2.75;;;0.77;;
74914;SDS011;63475;45.140;-75.616;2023-12-29T04:02:28;1.58;;;0.73;;
74914;SDS011;63475;45.140;-75.616;2023-12-29T04:04:31;1.73;;;0.40;;
74914;SDS011;63475;45.140;-75.616;2023-12-29T04:06:34;4.47;;;0.40;;
74914;SDS011;63475;45.140;-75.616;2023-12-29T04:08:37;1.63;;;0.38;;
74914;SDS011;63475;45.140;-75.616;2023-12-29T04:10:40;1.27;;;0.25;;
74914;SDS011;63475;45.140;-75.616;2023-12-29T04:12:43;2.58;;;0.73;;
74914;SDS011;63475;45.140;-75.616;2023-12-29T04:14:45;3.08;;;0.40;;
74914;SDS011;63475;45.140;-75.616;2023-12-29T04:16:48;1.45;;;0.70;;
74914;SDS011;63475;45.140;-75.616;2023-12-29T04:18:50;0.70;;;0.25;;
74914;SDS011;63475;45.140;-75.616;2023-12-29T04:20:53;1.58;;;0.30;;
74914;SDS011;63475;45.140;-75.616;2023-12-29T04:22:55;1.08;;;0.45;;
74914;SDS011;63475;45.140;-75.616;2023-12-29T04:24:58;1.60;;;0.40;;
74914;SDS011;63475;45.140;-75.616;2023-12-29T04:27:01;1.75;;;0.50;;
74914;SDS011;63475;45.140;-75.616;2023-12-29T04:29:03;1.25;;;0.35;;
74914;SDS011;63475;45.140;-75.616;2023-12-29T04:31:06;1.38;;;0.20;;
74914;SDS011;63475;45.140;-75.616;2023-12-29T04:33:09;2.15;;;0.28;;
74914;SDS011;63475;45.140;-75.616;2023-12-29T04:35:11;0.88;;;0.17;;
74914;SDS011;63475;45.140;-75.616;2023-12-29T04:37:16;1.58;;;0.45;;
74914;SDS011;63475;45.140;-75.616;2023-12-29T04:39:19;1.60;;;0.47;;
74914;SDS011;63475;45.140;-75.616;2023-12-29T04:41:21;1.73;;;0.30;;
74914;SDS011;63475;45.140;-75.616;2023-12-29T04:43:23;0.88;;;0.22;;
74914;SDS011;63475;45.140;-75.616;2023-12-29T04:45:26;0.70;;;0.10;;
74914;SDS011;63475;45.140;-75.616;2023-12-29T04:47:28;1.38;;;0.28;;
74914;SDS011;63475;45.140;-75.616;2023-12-29T04:49:31;0.68;;;0.30;;
74914;SDS011;63475;45.140;-75.616;2023-12-29T04:51:34;1.45;;;0.20;;
74914;SDS011;63475;45.140;-75.616;2023-12-29T04:53:36;2.65;;;0.30;;
74914;SDS011;63475;45.140;-75.616;2023-12-29T04:55:39;0.40;;;0.10;;
74914;SDS011;63475;45.140;-75.616;2023-12-29T04:57:43;0.88;;;0.17;;
74914;SDS011;63475;45.140;-75.616;2023-12-29T04:59:46;1.02;;;0.45;;
74914;SDS011;63475;45.140;-75.616;2023-12-29T05:01:48;1.98;;;1.00;;
74914;SDS011;63475;45.140;-75.616;2023-12-29T05:03:51;1.33;;;0.30;;
74914;SDS011;63475;45.140;-75.616;2023-12-29T05:05:53;1.15;;;0.20;;
74914;SDS011;63475;45.140;-75.616;2023-12-29T05:07:56;1.00;;;0.30;;
74914;SDS011;63475;45.140;-75.616;2023-12-29T05:09:59;2.25;;;0.15;;
74914;SDS011;63475;45.140;-75.616;2023-12-29T05:12:01;1.13;;;0.25;;
74914;SDS011;63475;45.140;-75.616;2023-12-29T05:14:04;1.45;;;0.20;;
74914;SDS011;63475;45.140;-75.616;2023-12-29T05:16:07;1.20;;;0.30;;
74914;SDS011;63475;45.140;-75.616;2023-12-29T05:18:09;1.42;;;0.22;;
74914;SDS011;63475;45.140;-75.616;2023-12-29T05:20:12;0.60;;;0.10;;
74914;SDS011;63475;45.140;-75.616;2023-12-29T05:22:14;0.43;;;0.20;;
74914;SDS011;63475;45.140;-75.616;2023-12-29T05:24:19;0.80;;;0.20;;
74914;SDS011;63475;45.140;-75.616;2023-12-29T05:26:21;1.70;;;0.20;;
74914;SDS011;63475;45.140;-75.616;2023-12-29T05:28:24;1.35;;;0.47;;
74914;SDS011;63475;45.140;-75.616;2023-12-29T05:30:26;1.02;;;0.20;;
74914;SDS011;63475;45.140;-75.616;2023-12-29T05:32:29;1.90;;;0.70;;
74914;SDS011;63475;45.140;-75.616;2023-12-29T05:34:32;1.20;;;0.40;;
74914;SDS011;63475;45.140;-75.616;2023-12-29T05:36:35;1.17;;;0.50;;
74914;SDS011;63475;45.140;-75.616;2023-12-29T05:38:38;0.50;;;0.17;;
74914;SDS011;63475;45.140;-75.616;2023-12-29T05:40:43;1.13;;;0.57;;
74914;SDS011;63475;45.140;-75.616;2023-12-29T05:42:45;1.13;;;0.28;;
74914;SDS011;63475;45.140;-75.616;2023-12-29T05:44:48;0.82;;;0.30;;
74914;SDS011;63475;45.140;-75.616;2023-12-29T05:46:50;1.05;;;0.20;;
74914;SDS011;63475;45.140;-75.616;2023-12-29T05:48:53;1.05;;;0.22;;
74914;SDS011;63475;45.140;-75.616;2023-12-29T05:50:56;2.30;;;0.30;;
74914;SDS011;63475;45.140;-75.616;2023-12-29T05:52:58;1.77;;;1.67;;
74914;SDS011;63475;45.140;-75.616;2023-12-29T05:55:01;1.60;;;0.30;;
74914;SDS011;63475;45.140;-75.616;2023-12-29T05:57:05;0.70;;;0.20;;
74914;SDS011;63475;45.140;-75.616;2023-12-29T05:59:07;0.15;;;0.10;;
74914;SDS011;63475;45.140;-75.616;2023-12-29T06:01:10;0.82;;;0.10;;
74914;SDS011;63475;45.140;-75.616;2023-12-29T06:03:13;1.00;;;0.85;;
74914;SDS011;63475;45.140;-75.616;2023-12-29T06:05:16;1.20;;;0.30;;
74914;SDS011;63475;45.140;-75.616;2023-12-29T06:07:18;0.60;;;0.25;;
74914;SDS011;63475;45.140;-75.616;2023-12-29T06:09:21;0.93;;;0.35;;
74914;SDS011;63475;45.140;-75.616;2023-12-29T06:11:23;1.38;;;0.40;;
74914;SDS011;63475;45.140;-75.616;2023-12-29T06:13:27;0.95;;;0.20;;
74914;SDS011;63475;45.140;-75.616;2023-12-29T06:15:30;1.10;;;0.20;;
74914;SDS011;63475;45.140;-75.616;2023-12-29T06:17:32;1.20;;;0.20;;
74914;SDS011;63475;45.140;-75.616;2023-12-29T06:19:37;0.98;;;0.68;;
74914;SDS011;63475;45.140;-75.616;2023-12-29T06:21:40;1.27;;;0.30;;
74914;SDS011;63475;45.140;-75.616;2023-12-29T06:23:45;1.00;;;0.38;;
74914;SDS011;63475;45.140;-75.616;2023-12-29T06:25:48;0.73;;;0.30;;
74914;SDS011;63475;45.140;-75.616;2023-12-29T06:27:50;1.20;;;0.30;;
74914;SDS011;63475;45.140;-75.616;2023-12-29T06:29:53;0.45;;;0.10;;
74914;SDS011;63475;45.140;-75.616;2023-12-29T06:31:55;1.95;;;0.30;;
74914;SDS011;63475;45.140;-75.616;2023-12-29T06:33:58;1.48;;;0.35;;
74914;SDS011;63475;45.140;-75.616;2023-12-29T06:36:02;0.65;;;0.20;;
74914;SDS011;63475;45.140;-75.616;2023-12-29T06:38:05;1.50;;;0.40;;
74914;SDS011;63475;45.140;-75.616;2023-12-29T06:40:07;1.33;;;0.20;;
74914;SDS011;63475;45.140;-75.616;2023-12-29T06:42:11;0.80;;;0.35;;
74914;SDS011;63475;45.140;-75.616;2023-12-29T06:44:14;1.23;;;0.40;;
74914;SDS011;63475;45.140;-75.616;2023-12-29T06:46:17;1.08;;;0.20;;
74914;SDS011;63475;45.140;-75.616;2023-12-29T06:48:19;1.08;;;0.35;;
74914;SDS011;63475;45.140;-75.616;2023-12-29T06:50:22;1.35;;;0.35;;
74914;SDS011;63475;45.140;-75.616;2023-12-29T06:52:25;1.42;;;0.70;;
74914;SDS011;63475;45.140;-75.616;2023-12-29T06:54:28;1.33;;;0.40;;
74914;SDS011;63475;45.140;-75.616;2023-12-29T06:56:32;0.70;;;0.20;;
74914;SDS011;63475;45.140;-75.616;2023-12-29T06:58:34;1.33;;;0.20;;
74914;SDS011;63475;45.140;-75.616;2023-12-29T07:00:37;0.80;;;0.38;;
74914;SDS011;63475;45.140;-75.616;2023-12-29T07:02:41;1.48;;;0.32;;
74914;SDS011;63475;45.140;-75.616;2023-12-29T07:04:44;1.30;;;0.90;;
74914;SDS011;63475;45.140;-75.616;2023-12-29T07:06:47;1.38;;;0.20;;
74914;SDS011;63475;45.140;-75.616;2023-12-29T07:08:50;1.23;;;0.38;;
74914;SDS011;63475;45.140;-75.616;2023-12-29T07:10:54;1.33;;;0.35;;
74914;SDS011;63475;45.140;-75.616;2023-12-29T07:12:56;2.10;;;0.65;;
74914;SDS011;63475;45.140;-75.616;2023-12-29T07:14:59;1.60;;;0.57;;
74914;SDS011;63475;45.140;-75.616;2023-12-29T07:17:02;1.13;;;0.43;;
74914;SDS011;63475;45.140;-75.616;2023-12-29T07:19:05;1.50;;;0.50;;
74914;SDS011;63475;45.140;-75.616;2023-12-29T07:21:07;0.70;;;0.20;;
74914;SDS011;63475;45.140;-75.616;2023-12-29T07:23:10;2.40;;;0.43;;
74914;SDS011;63475;45.140;-75.616;2023-12-29T07:25:13;1.52;;;0.47;;
74914;SDS011;63475;45.140;-75.616;2023-12-29T07:27:16;1.20;;;0.40;;
74914;SDS011;63475;45.140;-75.616;2023-12-29T07:29:18;0.98;;;0.40;;
74914;SDS011;63475;45.140;-75.616;2023-12-29T07:31:21;1.50;;;0.30;;
74914;SDS011;63475;45.140;-75.616;2023-12-29T07:33:24;1.23;;;0.30;;
74914;SDS011;63475;45.140;-75.616;2023-12-29T07:35:26;0.70;;;0.45;;
74914;SDS011;63475;45.140;-75.616;2023-12-29T07:37:29;1.25;;;0.50;;
74914;SDS011;63475;45.140;-75.616;2023-12-29T07:39:31;6.57;;;0.43;;
74914;SDS011;63475;45.140;-75.616;2023-12-29T07:41:34;0.93;;;0.40;;
74914;SDS011;63475;45.140;-75.616;2023-12-29T07:43:42;2.20;;;0.50;;
74914;SDS011;63475;45.140;-75.616;2023-12-29T07:45:45;2.72;;;0.75;;
74914;SDS011;63475;45.140;-75.616;2023-12-29T07:47:47;0.77;;;0.30;;
74914;SDS011;63475;45.140;-75.616;2023-12-29T07:49:50;2.60;;;0.20;;
74914;SDS011;63475;45.140;-75.616;2023-12-29T07:51:52;1.15;;;0.20;;
74914;SDS011;63475;45.140;-75.616;2023-12-29T07:53:55;1.23;;;0.20;;
74914;SDS011;63475;45.140;-75.616;2023-12-29T07:55:57;0.73;;;0.10;;
74914;SDS011;63475;45.140;-75.616;2023-12-29T07:58:00;1.27;;;0.30;;
74914;SDS011;63475;45.140;-75.616;2023-12-29T08:00:03;0.73;;;0.20;;
74914;SDS011;63475;45.140;-75.616;2023-12-29T08:02:08;1.90;;;0.30;;
74914;SDS011;63475;45.140;-75.616;2023-12-29T08:04:10;3.03;;;0.57;;
74914;SDS011;63475;45.140;-75.616;2023-12-29T08:06:16;0.65;;;0.30;;
74914;SDS011;63475;45.140;-75.616;2023-12-29T08:08:18;0.82;;;0.30;;
74914;SDS011;63475;45.140;-75.616;2023-12-29T08:10:21;1.65;;;0.40;;
74914;SDS011;63475;45.140;-75.616;2023-12-29T08:12:23;1.23;;;0.40;;
74914;SDS011;63475;45.140;-75.616;2023-12-29T08:14:26;0.50;;;0.17;;
74914;SDS011;63475;45.140;-75.616;2023-12-29T08:16:28;0.93;;;0.35;;
74914;SDS011;63475;45.140;-75.616;2023-12-29T08:18:31;0.47;;;0.10;;
74914;SDS011;63475;45.140;-75.616;2023-12-29T08:20:33;1.00;;;0.30;;
74914;SDS011;63475;45.140;-75.616;2023-12-29T08:22:36;0.82;;;0.20;;
74914;SDS011;63475;45.140;-75.616;2023-12-29T08:24:40;1.42;;;0.20;;
74914;SDS011;63475;45.140;-75.616;2023-12-29T08:26:45;0.38;;;0.10;;
74914;SDS011;63475;45.140;-75.616;2023-12-29T08:28:49;0.82;;;0.30;;
74914;SDS011;63475;45.140;-75.616;2023-12-29T08:30:52;0.82;;;0.20;;
74914;SDS011;63475;45.140;-75.616;2023-12-29T08:32:54;1.02;;;0.30;;
74914;SDS011;63475;45.140;-75.616;2023-12-29T08:34:57;1.05;;;0.20;;
74914;SDS011;63475;45.140;-75.616;2023-12-29T08:37:00;0.85;;;0.20;;
74914;SDS011;63475;45.140;-75.616;2023-12-29T08:39:02;0.90;;;0.20;;
74914;SDS011;63475;45.140;-75.616;2023-12-29T08:41:05;1.45;;;0.35;;
74914;SDS011;63475;45.140;-75.616;2023-12-29T08:43:07;0.60;;;0.20;;
74914;SDS011;63475;45.140;-75.616;2023-12-29T08:45:10;1.40;;;0.17;;
74914;SDS011;63475;45.140;-75.616;2023-12-29T08:47:13;1.25;;;0.50;;
74914;SDS011;63475;45.140;-75.616;2023-12-29T08:49:15;2.17;;;0.30;;
74914;SDS011;63475;45.140;-75.616;2023-12-29T08:51:18;0.47;;;0.10;;
74914;SDS011;63475;45.140;-75.616;2023-12-29T08:53:21;1.58;;;0.20;;
74914;SDS011;63475;45.140;-75.616;2023-12-29T08:55:26;1.17;;;0.38;;
74914;SDS011;63475;45.140;-75.616;2023-12-29T08:57:28;1.58;;;0.70;;
74914;SDS011;63475;45.140;-75.616;2023-12-29T08:59:31;0.65;;;0.10;;
74914;SDS011;63475;45.140;-75.616;2023-12-29T09:01:33;0.60;;;0.25;;
74914;SDS011;63475;45.140;-75.616;2023-12-29T09:03:36;1.00;;;0.30;;
74914;SDS011;63475;45.140;-75.616;2023-12-29T09:05:39;1.15;;;0.22;;
74914;SDS011;63475;45.140;-75.616;2023-12-29T09:07:42;1.52;;;0.30;;
74914;SDS011;63475;45.140;-75.616;2023-12-29T09:09:45;1.35;;;0.20;;
74914;SDS011;63475;45.140;-75.616;2023-12-29T09:11:47;0.60;;;0.10;;
74914;SDS011;63475;45.140;-75.616;2023-12-29T09:13:50;0.80;;;0.20;;
74914;SDS011;63475;45.140;-75.616;2023-12-29T09:15:53;0.68;;;0.20;;
74914;SDS011;63475;45.140;-75.616;2023-12-29T09:17:56;0.68;;;0.13;;
74914;SDS011;63475;45.140;-75.616;2023-12-29T09:19:59;1.15;;;0.15;;
74914;SDS011;63475;45.140;-75.616;2023-12-29T09:22:11;0.68;;;0.55;;
74914;SDS011;63475;45.140;-75.616;2023-12-29T09:24:13;1.00;;;0.40;;
74914;SDS011;63475;45.140;-75.616;2023-12-29T09:26:15;0.47;;;0.20;;
74914;SDS011;63475;45.140;-75.616;2023-12-29T09:28:18;1.52;;;0.32;;
74914;SDS011;63475;45.140;-75.616;2023-12-29T09:30:21;0.85;;;0.50;;
74914;SDS011;63475;45.140;-75.616;2023-12-29T09:32:23;1.10;;;0.47;;
74914;SDS011;63475;45.140;-75.616;2023-12-29T09:34:26;0.95;;;0.47;;
74914;SDS011;63475;45.140;-75.616;2023-12-29T09:36:29;1.35;;;0.20;;
74914;SDS011;63475;45.140;-75.616;2023-12-29T09:38:31;1.48;;;0.50;;
74914;SDS011;63475;45.140;-75.616;2023-12-29T09:40:34;1.38;;;0.32;;
74914;SDS011;63475;45.140;-75.616;2023-12-29T09:42:38;1.98;;;0.40;;
74914;SDS011;63475;45.140;-75.616;2023-12-29T09:44:40;0.80;;;0.28;;
74914;SDS011;63475;45.140;-75.616;2023-12-29T09:46:45;0.40;;;0.20;;
74914;SDS011;63475;45.140;-75.616;2023-12-29T09:50:54;0.75;;;0.28;;
74914;SDS011;63475;45.140;-75.616;2023-12-29T09:52:57;0.32;;;0.10;;
74914;SDS011;63475;45.140;-75.616;2023-12-29T09:55:02;1.10;;;0.10;;
74914;SDS011;63475;45.140;-75.616;2023-12-29T09:57:07;0.90;;;0.20;;
74914;SDS011;63475;45.140;-75.616;2023-12-29T09:59:10;1.15;;;0.22;;
74914;SDS011;63475;45.140;-75.616;2023-12-29T10:01:17;0.40;;;0.20;;
74914;SDS011;63475;45.140;-75.616;2023-12-29T10:03:21;1.55;;;0.20;;
74914;SDS011;63475;45.140;-75.616;2023-12-29T10:05:23;0.68;;;0.20;;
74914;SDS011;63475;45.140;-75.616;2023-12-29T10:07:26;0.47;;;0.10;;
74914;SDS011;63475;45.140;-75.616;2023-12-29T10:09:30;0.55;;;0.10;;
74914;SDS011;63475;45.140;-75.616;2023-12-29T10:11:35;0.50;;;0.10;;
74914;SDS011;63475;45.140;-75.616;2023-12-29T10:13:40;1.20;;;0.30;;
74914;SDS011;63475;45.140;-75.616;2023-12-29T10:18:09;0.20;;;0.08;;
74914;SDS011;63475;45.140;-75.616;2023-12-29T10:22:30;1.17;;;0.15;;
74914;SDS011;63475;45.140;-75.616;2023-12-29T10:24:43;0.60;;;0.10;;
74914;SDS011;63475;45.140;-75.616;2023-12-29T10:26:48;0.85;;;0.35;;
74914;SDS011;63475;45.140;-75.616;2023-12-29T10:28:52;0.30;;;0.10;;
74914;SDS011;63475;45.140;-75.616;2023-12-29T10:30:54;1.27;;;0.20;;
74914;SDS011;63475;45.140;-75.616;2023-12-29T10:32:57;0.60;;;0.10;;
74914;SDS011;63475;45.140;-75.616;2023-12-29T10:37:12;0.45;;;0.08;;
74914;SDS011;63475;45.140;-75.616;2023-12-29T10:39:25;0.73;;;0.32;;
74914;SDS011;63475;45.140;-75.616;2023-12-29T10:41:27;1.20;;;0.20;;
74914;SDS011;63475;45.140;-75.616;2023-12-29T10:43:30;0.75;;;0.10;;
74914;SDS011;63475;45.140;-75.616;2023-12-29T10:45:32;0.47;;;0.10;;
74914;SDS011;63475;45.140;-75.616;2023-12-29T10:47:35;0.60;;;0.20;;
74914;SDS011;63475;45.140;-75.616;2023-12-29T10:49:41;0.88;;;0.20;;
74914;SDS011;63475;45.140;-75.616;2023-12-29T10:51:44;1.95;;;0.30;;
74914;SDS011;63475;45.140;-75.616;2023-12-29T10:53:54;0.40;;;0.10;;
74914;SDS011;63475;45.140;-75.616;2023-12-29T10:56:01;0.47;;;0.30;;
74914;SDS011;63475;45.140;-75.616;2023-12-29T10:58:03;0.20;;;0.00;;
74914;SDS011;63475;45.140;-75.616;2023-12-29T11:00:07;0.68;;;0.10;;
74914;SDS011;63475;45.140;-75.616;2023-12-29T11:02:13;0.68;;;0.10;;
74914;SDS011;63475;45.140;-75.616;2023-12-29T11:04:21;0.73;;;0.45;;
74914;SDS011;63475;45.140;-75.616;2023-12-29T11:06:26;0.55;;;0.22;;
74914;SDS011;63475;45.140;-75.616;2023-12-29T11:08:30;1.40;;;0.20;;
74914;SDS011;63475;45.140;-75.616;2023-12-29T11:10:38;0.40;;;0.10;;
74914;SDS011;63475;45.140;-75.616;2023-12-29T11:12:41;0.50;;;0.10;;
74914;SDS011;63475;45.140;-75.616;2023-12-29T11:14:43;1.13;;;0.40;;
74914;SDS011;63475;45.140;-75.616;2023-12-29T11:16:49;0.50;;;0.10;;
74914;SDS011;63475;45.140;-75.616;2023-12-29T11:18:54;0.73;;;0.32;;
74914;SDS011;63475;45.140;-75.616;2023-12-29T11:20:59;0.45;;;0.10;;
74914;SDS011;63475;45.140;-75.616;2023-12-29T11:23:05;0.63;;;0.22;;
74914;SDS011;63475;45.140;-75.616;2023-12-29T11:25:09;1.17;;;0.22;;
74914;SDS011;63475;45.140;-75.616;2023-12-29T11:27:13;0.50;;;0.10;;
74914;SDS011;63475;45.140;-75.616;2023-12-29T11:29:17;1.27;;;0.30;;
74914;SDS011;63475;45.140;-75.616;2023-12-29T11:31:20;0.82;;;0.30;;
74914;SDS011;63475;45.140;-75.616;2023-12-29T11:33:26;0.68;;;0.38;;
74914;SDS011;63475;45.140;-75.616;2023-12-29T11:35:41;0.43;;;0.13;;
74914;SDS011;63475;45.140;-75.616;2023-12-29T11:38:08;0.43;;;0.10;;
74914;SDS011;63475;45.140;-75.616;2023-12-29T11:40:41;0.90;;;0.28;;
74914;SDS011;63475;45.140;-75.616;2023-12-29T11:42:52;1.25;;;0.20;;
74914;SDS011;63475;45.140;-75.616;2023-12-29T11:44:56;0.40;;;0.10;;
74914;SDS011;63475;45.140;-75.616;2023-12-29T11:46:59;0.25;;;0.10;;
74914;SDS011;63475;45.140;-75.616;2023-12-29T11:49:04;0.10;;;0.00;;
74914;SDS011;63475;45.140;-75.616;2023-12-29T11:51:27;0.38;;;0.10;;
74914;SDS011;63475;45.140;-75.616;2023-12-29T11:53:33;0.55;;;0.20;;
74914;SDS011;63475;45.140;-75.616;2023-12-29T11:55:38;0.75;;;0.40;;
74914;SDS011;63475;45.140;-75.616;2023-12-29T11:57:41;0.30;;;0.10;;
74914;SDS011;63475;45.140;-75.616;2023-12-29T11:59:47;0.35;;;0.10;;
74914;SDS011;63475;45.140;-75.616;2023-12-29T12:01:54;0.52;;;0.10;;
74914;SDS011;63475;45.140;-75.616;2023-12-29T12:03:58;0.63;;;0.45;;
74914;SDS011;63475;45.140;-75.616;2023-12-29T12:06:00;0.30;;;0.10;;
74914;SDS011;63475;45.140;-75.616;2023-12-29T12:08:06;0.50;;;0.10;;
74914;SDS011;63475;45.140;-75.616;2023-12-29T12:12:39;0.28;;;0.10;;
74914;SDS011;63475;45.140;-75.616;2023-12-29T12:14:47;0.68;;;0.43;;
74914;SDS011;63475;45.140;-75.616;2023-12-29T12:16:54;0.30;;;0.10;;
74914;SDS011;63475;45.140;-75.616;2023-12-29T12:18:56;0.85;;;0.10;;